sensor_id;sensor_type;location;lat;lon;timestamp;P1;durP1;ratioP1;P2;durP2;ratioP2
38190;SDS011;25191;47.510;19.124;2023-09-12T00:13:33;11.63;;;6.55;;
38190;SDS011;25191;47.510;19.124;2023-09-12T00:33:34;11.85;;;6.65;;
38190;SDS011;25191;47.510;19.124;2023-09-12T00:53:34;12.88;;;6.60;;
38190;SDS011;25191;47.510;19.124;2023-09-12T01:13:35;10.60;;;6.68;;
38190;SDS011;25191;47.510;19.124;2023-09-12T01:33:35;19.70;;;6.28;;
38190;SDS011;25191;47.510;19.124;2023-09-12T01:53:36;12.70;;;6.10;;
38190;SDS011;25191;47.510;19.124;2023-09-12T02:13:37;12.52;;;6.97;;
38190;SDS011;25191;47.510;19.124;2023-09-12T02:33:37;10.43;;;6.72;;
38190;SDS011;25191;47.510;19.124;2023-09-12T02:53:38;10.43;;;6.13;;
38190;SDS011;25191;47.510;19.124;2023-09-12T03:13:40;11.75;;;6.45;;
38190;SDS011;25191;47.510;19.124;2023-09-12T03:33:42;9.18;;;6.30;;
38190;SDS011;25191;47.510;19.124;2023-09-12T03:53:47;13.80;;;6.75;;
38190;SDS011;25191;47.510;19.124;2023-09-12T04:13:49;12.85;;;7.03;;
38190;SDS011;25191;47.510;19.124;2023-09-12T04:33:53;9.30;;;6.20;;
38190;SDS011;25191;47.510;19.124;2023-09-12T04:53:54;15.02;;;7.10;;
38190;SDS011;25191;47.510;19.124;2023-09-12T05:13:56;19.90;;;6.60;;
38190;SDS011;25191;47.510;19.124;2023-09-12T05:33:56;9.68;;;6.43;;
38190;SDS011;25191;47.510;19.124;2023-09-12T05:53:57;14.65;;;7.13;;
38190;SDS011;25191;47.510;19.124;2023-09-12T06:13:57;12.02;;;6.53;;
38190;SDS011;25191;47.510;19.124;2023-09-12T06:33:57;15.27;;;6.07;;
38190;SDS011;25191;47.510;19.124;2023-09-12T06:53:58;15.25;;;6.30;;
38190;SDS011;25191;47.510;19.124;2023-09-12T07:13:59;24.35;;;6.50;;
38190;SDS011;25191;47.510;19.124;2023-09-12T07:34:00;13.38;;;6.07;;
38190;SDS011;25191;47.510;19.124;2023-09-12T07:54:00;10.77;;;5.75;;
38190;SDS011;25191;47.510;19.124;2023-09-12T08:14:01;13.00;;;5.93;;
38190;SDS011;25191;47.510;19.124;2023-09-12T08:34:03;18.42;;;6.90;;
38190;SDS011;25191;47.510;19.124;2023-09-12T08:54:04;20.05;;;6.22;;
38190;SDS011;25191;47.510;19.124;2023-09-12T09:14:06;18.90;;;5.95;;
38190;SDS011;25191;47.510;19.124;2023-09-12T09:34:10;11.32;;;5.50;;
38190;SDS011;25191;47.510;19.124;2023-09-12T09:54:14;11.07;;;5.47;;
38190;SDS011;25191;47.510;19.124;2023-09-12T10:14:15;12.45;;;4.60;;
38190;SDS011;25191;47.510;19.124;2023-09-12T10:34:20;7.40;;;3.95;;
38190;SDS011;25191;47.510;19.124;2023-09-12T10:54:25;10.38;;;4.60;;
38190;SDS011;25191;47.510;19.124;2023-09-12T11:14:35;9.55;;;4.22;;
38190;SDS011;25191;47.510;19.124;2023-09-12T11:34:38;7.63;;;4.30;;
38190;SDS011;25191;47.510;19.124;2023-09-12T11:54:41;10.98;;;4.40;;
38190;SDS011;25191;47.510;19.124;2023-09-12T12:14:47;17.52;;;4.50;;
38190;SDS011;25191;47.510;19.124;2023-09-12T12:34:49;8.43;;;3.90;;
38190;SDS011;25191;47.510;19.124;2023-09-12T12:54:49;11.98;;;3.85;;
38190;SDS011;25191;47.510;19.124;2023-09-12T13:14:52;10.98;;;3.78;;
38190;SDS011;25191;47.510;19.124;2023-09-12T13:34:52;12.70;;;3.83;;
38190;SDS011;25191;47.510;19.124;2023-09-12T13:54:53;7.25;;;4.00;;
38190;SDS011;25191;47.510;19.124;2023-09-12T14:14:53;20.70;;;5.25;;
38190;SDS011;25191;47.510;19.124;2023-09-12T14:34:55;14.55;;;4.10;;
38190;SDS011;25191;47.510;19.124;2023-09-12T14:54:57;16.85;;;4.32;;
38190;SDS011;25191;47.510;19.124;2023-09-12T15:14:58;17.98;;;4.68;;
38190;SDS011;25191;47.510;19.124;2023-09-12T15:34:59;16.40;;;4.20;;
38190;SDS011;25191;47.510;19.124;2023-09-12T15:55:00;11.15;;;3.83;;
38190;SDS011;25191;47.510;19.124;2023-09-12T16:15:01;11.40;;;4.20;;
38190;SDS011;25191;47.510;19.124;2023-09-12T16:35:01;7.43;;;3.42;;
38190;SDS011;25191;47.510;19.124;2023-09-12T17:15:06;11.35;;;4.07;;
38190;SDS011;25191;47.510;19.124;2023-09-12T17:35:07;9.20;;;5.00;;
38190;SDS011;25191;47.510;19.124;2023-09-12T17:55:09;14.90;;;5.90;;
38190;SDS011;25191;47.510;19.124;2023-09-12T18:15:10;14.68;;;6.20;;
38190;SDS011;25191;47.510;19.124;2023-09-12T18:35:14;15.38;;;4.85;;
38190;SDS011;25191;47.510;19.124;2023-09-12T18:55:15;21.17;;;6.13;;
38190;SDS011;25191;47.510;19.124;2023-09-12T19:15:16;21.88;;;5.97;;
38190;SDS011;25191;47.510;19.124;2023-09-12T19:35:18;17.35;;;5.65;;
38190;SDS011;25191;47.510;19.124;2023-09-12T19:55:19;16.83;;;6.18;;
38190;SDS011;25191;47.510;19.124;2023-09-12T20:15:21;19.25;;;5.88;;
38190;SDS011;25191;47.510;19.124;2023-09-12T20:35:22;16.65;;;5.82;;
38190;SDS011;25191;47.510;19.124;2023-09-12T20:55:28;14.27;;;6.43;;
38190;SDS011;25191;47.510;19.124;2023-09-12T21:15:29;20.45;;;6.60;;
38190;SDS011;25191;47.510;19.124;2023-09-12T21:35:30;15.52;;;6.88;;
38190;SDS011;25191;47.510;19.124;2023-09-12T21:55:32;15.27;;;6.63;;
38190;SDS011;25191;47.510;19.124;2023-09-12T22:15:35;19.10;;;6.78;;
38190;SDS011;25191;47.510;19.124;2023-09-12T22:35:40;18.67;;;6.45;;
38190;SDS011;25191;47.510;19.124;2023-09-12T22:55:42;14.00;;;7.15;;
38190;SDS011;25191;47.510;19.124;2023-09-12T23:15:42;20.17;;;6.70;;
38190;SDS011;25191;47.510;19.124;2023-09-12T23:35:43;18.10;;;7.28;;
38190;SDS011;25191;47.510;19.124;2023-09-12T23:55:44;19.50;;;6.97;;
